sensor_id;sensor_type;location;lat;lon;timestamp;temperature;humidity
11399;DHT22;5755;48.116;11.608;2023-05-07T00:02:07;12.60;99.90
11399;DHT22;5755;48.116;11.608;2023-05-07T00:04:34;12.60;99.90
11399;DHT22;5755;48.116;11.608;2023-05-07T00:07:03;12.60;99.90
11399;DHT22;5755;48.116;11.608;2023-05-07T00:09:30;12.50;99.90
11399;DHT22;5755;48.116;11.608;2023-05-07T00:11:56;12.60;99.90
11399;DHT22;5755;48.116;11.608;2023-05-07T00:14:24;12.50;99.90
11399;DHT22;5755;48.116;11.608;2023-05-07T00:16:54;12.60;99.90
11399;DHT22;5755;48.116;11.608;2023-05-07T00:19:21;12.60;99.90
11399;DHT22;5755;48.116;11.608;2023-05-07T00:21:48;12.60;99.90
11399;DHT22;5755;48.116;11.608;2023-05-07T00:24:15;12.50;99.90
11399;DHT22;5755;48.116;11.608;2023-05-07T00:26:42;12.40;99.90
11399;DHT22;5755;48.116;11.608;2023-05-07T00:29:09;12.40;99.90
11399;DHT22;5755;48.116;11.608;2023-05-07T00:31:36;12.30;99.90
11399;DHT22;5755;48.116;11.608;2023-05-07T00:34:04;12.30;99.90
11399;DHT22;5755;48.116;11.608;2023-05-07T00:36:31;12.20;99.90
11399;DHT22;5755;48.116;11.608;2023-05-07T00:39:00;12.20;99.90
11399;DHT22;5755;48.116;11.608;2023-05-07T00:41:28;12.20;99.90
11399;DHT22;5755;48.116;11.608;2023-05-07T00:43:56;12.30;99.90
11399;DHT22;5755;48.116;11.608;2023-05-07T00:46:23;12.40;99.90
11399;DHT22;5755;48.116;11.608;2023-05-07T00:48:51;12.60;99.90
11399;DHT22;5755;48.116;11.608;2023-05-07T00:51:20;12.70;99.90
11399;DHT22;5755;48.116;11.608;2023-05-07T00:53:47;12.70;99.90
11399;DHT22;5755;48.116;11.608;2023-05-07T00:56:14;12.70;99.90
11399;DHT22;5755;48.116;11.608;2023-05-07T00:58:41;12.80;99.90
11399;DHT22;5755;48.116;11.608;2023-05-07T01:01:08;12.70;99.90
11399;DHT22;5755;48.116;11.608;2023-05-07T01:03:36;12.70;99.90
11399;DHT22;5755;48.116;11.608;2023-05-07T01:06:05;12.70;99.90
11399;DHT22;5755;48.116;11.608;2023-05-07T01:08:35;12.70;99.90
11399;DHT22;5755;48.116;11.608;2023-05-07T01:11:02;12.60;99.90
11399;DHT22;5755;48.116;11.608;2023-05-07T01:13:29;12.60;99.90
11399;DHT22;5755;48.116;11.608;2023-05-07T01:15:58;12.60;99.90
11399;DHT22;5755;48.116;11.608;2023-05-07T01:18:25;12.50;99.90
11399;DHT22;5755;48.116;11.608;2023-05-07T01:20:52;12.50;99.90
11399;DHT22;5755;48.116;11.608;2023-05-07T01:23:21;12.50;99.90
11399;DHT22;5755;48.116;11.608;2023-05-07T01:25:52;12.50;99.90
11399;DHT22;5755;48.116;11.608;2023-05-07T01:28:20;12.40;99.90
11399;DHT22;5755;48.116;11.608;2023-05-07T01:30:54;12.40;99.90
11399;DHT22;5755;48.116;11.608;2023-05-07T01:33:35;12.20;99.90
11399;DHT22;5755;48.116;11.608;2023-05-07T01:36:04;12.30;99.90
11399;DHT22;5755;48.116;11.608;2023-05-07T01:38:35;12.30;99.90
11399;DHT22;5755;48.116;11.608;2023-05-07T01:41:02;12.30;99.90
11399;DHT22;5755;48.116;11.608;2023-05-07T01:43:30;12.40;99.90
11399;DHT22;5755;48.116;11.608;2023-05-07T01:45:59;12.40;99.90
11399;DHT22;5755;48.116;11.608;2023-05-07T01:48:26;12.40;99.90
11399;DHT22;5755;48.116;11.608;2023-05-07T01:50:54;12.20;99.90
11399;DHT22;5755;48.116;11.608;2023-05-07T01:53:21;12.20;99.90
11399;DHT22;5755;48.116;11.608;2023-05-07T01:55:50;12.20;99.90
11399;DHT22;5755;48.116;11.608;2023-05-07T01:58:18;12.30;99.90
11399;DHT22;5755;48.116;11.608;2023-05-07T02:00:45;12.30;99.90
11399;DHT22;5755;48.116;11.608;2023-05-07T02:03:12;12.30;99.90
11399;DHT22;5755;48.116;11.608;2023-05-07T02:05:39;12.30;99.90
11399;DHT22;5755;48.116;11.608;2023-05-07T02:08:06;12.40;99.90
11399;DHT22;5755;48.116;11.608;2023-05-07T02:10:33;12.40;99.90
11399;DHT22;5755;48.116;11.608;2023-05-07T02:13:02;12.40;99.90
11399;DHT22;5755;48.116;11.608;2023-05-07T02:15:29;12.20;99.90
11399;DHT22;5755;48.116;11.608;2023-05-07T02:18:01;12.20;99.90
11399;DHT22;5755;48.116;11.608;2023-05-07T02:20:28;12.20;99.90
11399;DHT22;5755;48.116;11.608;2023-05-07T02:22:55;12.10;99.90
11399;DHT22;5755;48.116;11.608;2023-05-07T02:25:24;12.10;99.90
11399;DHT22;5755;48.116;11.608;2023-05-07T02:27:50;12.00;99.90
11399;DHT22;5755;48.116;11.608;2023-05-07T02:30:19;12.00;99.90
11399;DHT22;5755;48.116;11.608;2023-05-07T02:32:46;11.90;99.90
11399;DHT22;5755;48.116;11.608;2023-05-07T02:35:13;11.90;99.90
11399;DHT22;5755;48.116;11.608;2023-05-07T02:37:40;11.90;99.90
11399;DHT22;5755;48.116;11.608;2023-05-07T02:40:08;11.80;99.90
11399;DHT22;5755;48.116;11.608;2023-05-07T02:42:35;11.80;99.90
11399;DHT22;5755;48.116;11.608;2023-05-07T02:45:03;11.80;99.90
11399;DHT22;5755;48.116;11.608;2023-05-07T02:47:31;11.70;99.90
11399;DHT22;5755;48.116;11.608;2023-05-07T02:49:58;11.70;99.90
11399;DHT22;5755;48.116;11.608;2023-05-07T02:52:25;11.60;99.90
11399;DHT22;5755;48.116;11.608;2023-05-07T02:54:52;11.80;99.90
11399;DHT22;5755;48.116;11.608;2023-05-07T02:57:19;11.90;99.90
11399;DHT22;5755;48.116;11.608;2023-05-07T02:59:46;11.90;99.90
11399;DHT22;5755;48.116;11.608;2023-05-07T03:02:13;11.90;99.90
11399;DHT22;5755;48.116;11.608;2023-05-07T03:04:41;11.80;99.90
11399;DHT22;5755;48.116;11.608;2023-05-07T03:07:08;11.70;99.90
11399;DHT22;5755;48.116;11.608;2023-05-07T03:09:35;11.70;99.90
11399;DHT22;5755;48.116;11.608;2023-05-07T03:12:02;11.70;99.90
11399;DHT22;5755;48.116;11.608;2023-05-07T03:14:29;11.80;99.90
11399;DHT22;5755;48.116;11.608;2023-05-07T03:16:56;11.70;99.90
11399;DHT22;5755;48.116;11.608;2023-05-07T03:19:23;11.60;99.90
11399;DHT22;5755;48.116;11.608;2023-05-07T03:21:52;11.50;99.90
11399;DHT22;5755;48.116;11.608;2023-05-07T03:24:19;11.50;99.90
11399;DHT22;5755;48.116;11.608;2023-05-07T03:26:45;11.40;99.90
11399;DHT22;5755;48.116;11.608;2023-05-07T03:29:12;11.40;99.90
11399;DHT22;5755;48.116;11.608;2023-05-07T03:31:39;11.40;99.90
11399;DHT22;5755;48.116;11.608;2023-05-07T03:34:06;11.40;99.90
11399;DHT22;5755;48.116;11.608;2023-05-07T03:36:33;11.40;99.90
11399;DHT22;5755;48.116;11.608;2023-05-07T03:39:01;11.40;99.90
11399;DHT22;5755;48.116;11.608;2023-05-07T03:41:28;11.30;99.90
11399;DHT22;5755;48.116;11.608;2023-05-07T03:43:56;11.40;99.90
11399;DHT22;5755;48.116;11.608;2023-05-07T03:46:23;11.40;99.90
11399;DHT22;5755;48.116;11.608;2023-05-07T03:48:51;11.40;99.90
11399;DHT22;5755;48.116;11.608;2023-05-07T03:51:18;11.50;99.90
11399;DHT22;5755;48.116;11.608;2023-05-07T03:53:45;11.60;99.90
11399;DHT22;5755;48.116;11.608;2023-05-07T03:56:13;11.60;99.90
11399;DHT22;5755;48.116;11.608;2023-05-07T03:58:40;11.50;99.90
11399;DHT22;5755;48.116;11.608;2023-05-07T04:01:07;11.40;99.90
11399;DHT22;5755;48.116;11.608;2023-05-07T04:03:34;11.30;99.90
11399;DHT22;5755;48.116;11.608;2023-05-07T04:06:01;11.30;99.90
11399;DHT22;5755;48.116;11.608;2023-05-07T04:08:28;11.30;99.90
11399;DHT22;5755;48.116;11.608;2023-05-07T04:10:56;11.40;99.90
11399;DHT22;5755;48.116;11.608;2023-05-07T04:13:25;11.40;99.90
11399;DHT22;5755;48.116;11.608;2023-05-07T04:15:52;11.40;99.90
11399;DHT22;5755;48.116;11.608;2023-05-07T04:18:19;11.30;99.90
11399;DHT22;5755;48.116;11.608;2023-05-07T04:20:47;11.30;99.90
11399;DHT22;5755;48.116;11.608;2023-05-07T04:23:14;11.20;99.90
11399;DHT22;5755;48.116;11.608;2023-05-07T04:25:41;11.20;99.90
11399;DHT22;5755;48.116;11.608;2023-05-07T04:28:08;11.30;99.90
11399;DHT22;5755;48.116;11.608;2023-05-07T04:30:36;11.40;99.90
11399;DHT22;5755;48.116;11.608;2023-05-07T04:33:03;11.40;99.90
11399;DHT22;5755;48.116;11.608;2023-05-07T04:35:32;11.30;99.90
11399;DHT22;5755;48.116;11.608;2023-05-07T04:37:59;11.40;99.90
11399;DHT22;5755;48.116;11.608;2023-05-07T04:40:25;11.40;99.90
11399;DHT22;5755;48.116;11.608;2023-05-07T04:42:52;11.50;99.90
11399;DHT22;5755;48.116;11.608;2023-05-07T04:45:19;11.60;99.90
11399;DHT22;5755;48.116;11.608;2023-05-07T04:47:48;11.70;99.90
11399;DHT22;5755;48.116;11.608;2023-05-07T04:50:15;11.70;99.90
11399;DHT22;5755;48.116;11.608;2023-05-07T04:52:43;11.70;99.90
11399;DHT22;5755;48.116;11.608;2023-05-07T04:55:10;11.80;99.90
11399;DHT22;5755;48.116;11.608;2023-05-07T04:57:37;11.90;99.90
11399;DHT22;5755;48.116;11.608;2023-05-07T05:00:07;12.00;99.90
11399;DHT22;5755;48.116;11.608;2023-05-07T05:02:34;12.10;99.90
11399;DHT22;5755;48.116;11.608;2023-05-07T05:05:03;12.10;99.90
11399;DHT22;5755;48.116;11.608;2023-05-07T05:07:30;12.00;99.90
11399;DHT22;5755;48.116;11.608;2023-05-07T05:09:57;11.90;99.90
11399;DHT22;5755;48.116;11.608;2023-05-07T05:12:24;11.80;99.90
11399;DHT22;5755;48.116;11.608;2023-05-07T05:14:51;11.80;99.90
11399;DHT22;5755;48.116;11.608;2023-05-07T05:17:18;11.80;99.90
11399;DHT22;5755;48.116;11.608;2023-05-07T05:19:45;11.80;99.90
11399;DHT22;5755;48.116;11.608;2023-05-07T05:22:14;11.90;99.90
11399;DHT22;5755;48.116;11.608;2023-05-07T05:24:41;11.90;99.90
11399;DHT22;5755;48.116;11.608;2023-05-07T05:27:08;12.10;99.90
11399;DHT22;5755;48.116;11.608;2023-05-07T05:29:35;12.30;99.90
11399;DHT22;5755;48.116;11.608;2023-05-07T05:32:02;12.40;99.90
11399;DHT22;5755;48.116;11.608;2023-05-07T05:34:29;12.60;99.90
11399;DHT22;5755;48.116;11.608;2023-05-07T05:36:56;12.60;99.90
11399;DHT22;5755;48.116;11.608;2023-05-07T05:39:24;12.80;99.90
11399;DHT22;5755;48.116;11.608;2023-05-07T05:41:51;12.80;99.90
11399;DHT22;5755;48.116;11.608;2023-05-07T05:44:18;12.80;99.90
11399;DHT22;5755;48.116;11.608;2023-05-07T05:46:45;12.90;99.90
11399;DHT22;5755;48.116;11.608;2023-05-07T05:49:15;13.10;99.90
11399;DHT22;5755;48.116;11.608;2023-05-07T05:51:43;13.20;99.90
11399;DHT22;5755;48.116;11.608;2023-05-07T05:54:20;13.30;99.90
11399;DHT22;5755;48.116;11.608;2023-05-07T05:56:58;13.60;99.90
11399;DHT22;5755;48.116;11.608;2023-05-07T05:59:25;13.90;99.90
11399;DHT22;5755;48.116;11.608;2023-05-07T06:01:52;14.10;99.90
11399;DHT22;5755;48.116;11.608;2023-05-07T06:04:19;14.20;99.90
11399;DHT22;5755;48.116;11.608;2023-05-07T06:06:46;14.20;99.90
11399;DHT22;5755;48.116;11.608;2023-05-07T06:09:13;14.10;99.90
11399;DHT22;5755;48.116;11.608;2023-05-07T06:11:41;13.90;99.90
11399;DHT22;5755;48.116;11.608;2023-05-07T06:14:12;14.10;99.90
11399;DHT22;5755;48.116;11.608;2023-05-07T06:16:40;14.20;99.90
11399;DHT22;5755;48.116;11.608;2023-05-07T06:19:07;14.30;99.90
11399;DHT22;5755;48.116;11.608;2023-05-07T06:21:34;14.40;99.90
11399;DHT22;5755;48.116;11.608;2023-05-07T06:24:01;14.50;99.90
11399;DHT22;5755;48.116;11.608;2023-05-07T06:26:28;14.70;99.90
11399;DHT22;5755;48.116;11.608;2023-05-07T06:28:55;14.80;99.90
11399;DHT22;5755;48.116;11.608;2023-05-07T06:31:28;14.90;99.80
11399;DHT22;5755;48.116;11.608;2023-05-07T06:33:56;15.10;99.90
11399;DHT22;5755;48.116;11.608;2023-05-07T06:36:23;15.10;98.10
11399;DHT22;5755;48.116;11.608;2023-05-07T06:38:50;15.30;98.60
11399;DHT22;5755;48.116;11.608;2023-05-07T06:41:16;15.50;97.30
11399;DHT22;5755;48.116;11.608;2023-05-07T06:43:43;15.70;97.10
11399;DHT22;5755;48.116;11.608;2023-05-07T06:46:10;15.80;96.90
11399;DHT22;5755;48.116;11.608;2023-05-07T06:48:39;16.00;96.40
11399;DHT22;5755;48.116;11.608;2023-05-07T06:51:06;16.20;95.60
11399;DHT22;5755;48.116;11.608;2023-05-07T06:53:32;16.30;95.70
11399;DHT22;5755;48.116;11.608;2023-05-07T06:56:00;16.30;95.50
11399;DHT22;5755;48.116;11.608;2023-05-07T06:58:27;16.40;95.00
11399;DHT22;5755;48.116;11.608;2023-05-07T07:00:53;16.40;94.20
11399;DHT22;5755;48.116;11.608;2023-05-07T07:03:21;16.50;94.70
11399;DHT22;5755;48.116;11.608;2023-05-07T07:05:51;16.60;94.90
11399;DHT22;5755;48.116;11.608;2023-05-07T07:08:18;16.70;94.60
11399;DHT22;5755;48.116;11.608;2023-05-07T07:10:46;16.70;93.90
11399;DHT22;5755;48.116;11.608;2023-05-07T07:13:13;16.90;93.20
11399;DHT22;5755;48.116;11.608;2023-05-07T07:15:40;17.00;92.60
11399;DHT22;5755;48.116;11.608;2023-05-07T07:18:07;17.20;92.20
11399;DHT22;5755;48.116;11.608;2023-05-07T07:20:34;17.50;91.60
11399;DHT22;5755;48.116;11.608;2023-05-07T07:23:03;17.70;91.10
11399;DHT22;5755;48.116;11.608;2023-05-07T07:25:29;17.90;90.30
11399;DHT22;5755;48.116;11.608;2023-05-07T07:27:56;18.10;88.20
11399;DHT22;5755;48.116;11.608;2023-05-07T07:30:23;18.10;88.20
11399;DHT22;5755;48.116;11.608;2023-05-07T07:32:51;18.20;87.20
11399;DHT22;5755;48.116;11.608;2023-05-07T07:35:18;18.20;86.50
11399;DHT22;5755;48.116;11.608;2023-05-07T07:37:45;18.30;86.10
11399;DHT22;5755;48.116;11.608;2023-05-07T07:40:14;18.30;87.10
11399;DHT22;5755;48.116;11.608;2023-05-07T07:42:41;18.30;87.10
11399;DHT22;5755;48.116;11.608;2023-05-07T07:45:10;18.40;85.30
11399;DHT22;5755;48.116;11.608;2023-05-07T07:47:38;18.50;83.00
11399;DHT22;5755;48.116;11.608;2023-05-07T07:50:06;18.50;83.70
11399;DHT22;5755;48.116;11.608;2023-05-07T07:52:33;18.50;80.00
11399;DHT22;5755;48.116;11.608;2023-05-07T07:55:00;18.50;77.60
11399;DHT22;5755;48.116;11.608;2023-05-07T07:57:29;18.60;79.80
11399;DHT22;5755;48.116;11.608;2023-05-07T07:59:55;18.70;78.70
11399;DHT22;5755;48.116;11.608;2023-05-07T08:02:22;18.80;80.00
11399;DHT22;5755;48.116;11.608;2023-05-07T08:04:49;19.00;82.40
11399;DHT22;5755;48.116;11.608;2023-05-07T08:07:16;19.10;80.20
11399;DHT22;5755;48.116;11.608;2023-05-07T08:09:44;19.00;80.10
11399;DHT22;5755;48.116;11.608;2023-05-07T08:12:11;19.20;76.90
11399;DHT22;5755;48.116;11.608;2023-05-07T08:14:39;19.30;79.00
11399;DHT22;5755;48.116;11.608;2023-05-07T08:17:06;19.40;74.70
11399;DHT22;5755;48.116;11.608;2023-05-07T08:19:35;19.60;65.30
11399;DHT22;5755;48.116;11.608;2023-05-07T08:22:02;19.70;62.60
11399;DHT22;5755;48.116;11.608;2023-05-07T08:24:29;19.70;63.20
11399;DHT22;5755;48.116;11.608;2023-05-07T08:26:56;19.80;59.30
11399;DHT22;5755;48.116;11.608;2023-05-07T08:29:23;19.90;56.70
11399;DHT22;5755;48.116;11.608;2023-05-07T08:31:51;20.10;56.00
11399;DHT22;5755;48.116;11.608;2023-05-07T08:34:19;20.20;56.10
11399;DHT22;5755;48.116;11.608;2023-05-07T08:36:45;20.40;51.50
11399;DHT22;5755;48.116;11.608;2023-05-07T08:39:14;20.40;53.90
11399;DHT22;5755;48.116;11.608;2023-05-07T08:41:44;20.50;47.50
11399;DHT22;5755;48.116;11.608;2023-05-07T08:44:13;20.80;44.50
11399;DHT22;5755;48.116;11.608;2023-05-07T08:46:41;21.10;42.20
11399;DHT22;5755;48.116;11.608;2023-05-07T08:49:10;21.20;42.10
11399;DHT22;5755;48.116;11.608;2023-05-07T08:51:37;21.50;41.90
11399;DHT22;5755;48.116;11.608;2023-05-07T08:54:04;22.20;34.50
11399;DHT22;5755;48.116;11.608;2023-05-07T08:56:32;23.00;30.30
11399;DHT22;5755;48.116;11.608;2023-05-07T08:58:59;23.50;29.30
11399;DHT22;5755;48.116;11.608;2023-05-07T09:01:26;24.00;26.00
11399;DHT22;5755;48.116;11.608;2023-05-07T09:03:53;25.30;21.70
11399;DHT22;5755;48.116;11.608;2023-05-07T09:06:22;26.00;19.90
11399;DHT22;5755;48.116;11.608;2023-05-07T09:08:50;26.60;17.10
11399;DHT22;5755;48.116;11.608;2023-05-07T09:11:20;27.10;17.00
11399;DHT22;5755;48.116;11.608;2023-05-07T09:13:47;27.60;15.40
11399;DHT22;5755;48.116;11.608;2023-05-07T09:16:15;27.60;17.00
11399;DHT22;5755;48.116;11.608;2023-05-07T09:18:42;27.80;15.90
11399;DHT22;5755;48.116;11.608;2023-05-07T09:21:10;28.30;15.80
11399;DHT22;5755;48.116;11.608;2023-05-07T09:23:38;28.20;15.70
11399;DHT22;5755;48.116;11.608;2023-05-07T09:26:06;28.10;15.70
11399;DHT22;5755;48.116;11.608;2023-05-07T09:28:38;28.70;14.60
11399;DHT22;5755;48.116;11.608;2023-05-07T09:31:05;29.30;13.50
11399;DHT22;5755;48.116;11.608;2023-05-07T09:33:34;30.20;12.20
11399;DHT22;5755;48.116;11.608;2023-05-07T09:36:03;29.70;11.00
11399;DHT22;5755;48.116;11.608;2023-05-07T09:38:30;29.00;12.10
11399;DHT22;5755;48.116;11.608;2023-05-07T09:41:14;28.80;16.10
11399;DHT22;5755;48.116;11.608;2023-05-07T09:43:41;28.90;14.40
11399;DHT22;5755;48.116;11.608;2023-05-07T09:46:11;28.70;12.80
11399;DHT22;5755;48.116;11.608;2023-05-07T09:48:42;29.30;12.50
11399;DHT22;5755;48.116;11.608;2023-05-07T09:51:18;29.70;11.90
11399;DHT22;5755;48.116;11.608;2023-05-07T09:53:48;30.30;10.20
11399;DHT22;5755;48.116;11.608;2023-05-07T09:56:21;30.10;10.90
11399;DHT22;5755;48.116;11.608;2023-05-07T09:58:52;29.70;11.80
11399;DHT22;5755;48.116;11.608;2023-05-07T10:01:20;29.90;10.40
11399;DHT22;5755;48.116;11.608;2023-05-07T10:03:49;29.70;11.40
11399;DHT22;5755;48.116;11.608;2023-05-07T10:06:17;29.80;12.20
11399;DHT22;5755;48.116;11.608;2023-05-07T10:08:46;30.00;9.20
11399;DHT22;5755;48.116;11.608;2023-05-07T10:11:13;30.30;8.70
11399;DHT22;5755;48.116;11.608;2023-05-07T10:13:43;29.60;10.90
11399;DHT22;5755;48.116;11.608;2023-05-07T10:16:09;29.10;9.30
11399;DHT22;5755;48.116;11.608;2023-05-07T10:18:37;29.30;10.20
11399;DHT22;5755;48.116;11.608;2023-05-07T10:21:07;28.40;11.80
11399;DHT22;5755;48.116;11.608;2023-05-07T10:23:35;27.90;11.90
11399;DHT22;5755;48.116;11.608;2023-05-07T10:26:05;28.00;12.50
11399;DHT22;5755;48.116;11.608;2023-05-07T10:28:36;27.80;11.50
11399;DHT22;5755;48.116;11.608;2023-05-07T10:31:26;27.30;13.40
11399;DHT22;5755;48.116;11.608;2023-05-07T10:34:00;27.60;13.80
11399;DHT22;5755;48.116;11.608;2023-05-07T10:36:33;27.10;16.00
11399;DHT22;5755;48.116;11.608;2023-05-07T10:39:00;26.70;15.00
11399;DHT22;5755;48.116;11.608;2023-05-07T10:41:30;26.10;14.70
11399;DHT22;5755;48.116;11.608;2023-05-07T10:50:25;26.20;14.70
11399;DHT22;5755;48.116;11.608;2023-05-07T10:56:26;26.50;14.00
11399;DHT22;5755;48.116;11.608;2023-05-07T11:01:52;26.00;17.80
11399;DHT22;5755;48.116;11.608;2023-05-07T11:04:19;25.90;18.20
11399;DHT22;5755;48.116;11.608;2023-05-07T11:07:29;25.90;16.00
11399;DHT22;5755;48.116;11.608;2023-05-07T11:09:58;25.50;18.10
11399;DHT22;5755;48.116;11.608;2023-05-07T11:12:52;25.60;16.00
11399;DHT22;5755;48.116;11.608;2023-05-07T11:15:39;24.90;17.80
11399;DHT22;5755;48.116;11.608;2023-05-07T11:18:07;24.60;19.90
11399;DHT22;5755;48.116;11.608;2023-05-07T11:20:52;24.60;19.10
11399;DHT22;5755;48.116;11.608;2023-05-07T11:26:45;24.20;20.10
11399;DHT22;5755;48.116;11.608;2023-05-07T11:29:14;24.30;20.90
11399;DHT22;5755;48.116;11.608;2023-05-07T11:31:41;24.70;20.60
11399;DHT22;5755;48.116;11.608;2023-05-07T11:34:08;24.80;20.00
11399;DHT22;5755;48.116;11.608;2023-05-07T11:36:36;25.10;19.50
11399;DHT22;5755;48.116;11.608;2023-05-07T11:39:23;25.10;20.00
11399;DHT22;5755;48.116;11.608;2023-05-07T11:41:52;24.90;22.30
11399;DHT22;5755;48.116;11.608;2023-05-07T11:44:19;24.50;20.60
11399;DHT22;5755;48.116;11.608;2023-05-07T11:46:46;24.20;21.40
11399;DHT22;5755;48.116;11.608;2023-05-07T11:49:13;24.10;21.90
11399;DHT22;5755;48.116;11.608;2023-05-07T11:51:40;24.10;22.10
11399;DHT22;5755;48.116;11.608;2023-05-07T11:54:08;24.00;24.70
11399;DHT22;5755;48.116;11.608;2023-05-07T11:56:37;23.80;24.50
11399;DHT22;5755;48.116;11.608;2023-05-07T11:59:05;23.70;23.40
11399;DHT22;5755;48.116;11.608;2023-05-07T12:01:40;23.60;23.20
11399;DHT22;5755;48.116;11.608;2023-05-07T12:04:07;23.60;24.90
11399;DHT22;5755;48.116;11.608;2023-05-07T12:06:36;23.80;23.90
11399;DHT22;5755;48.116;11.608;2023-05-07T12:09:05;23.80;23.50
11399;DHT22;5755;48.116;11.608;2023-05-07T12:11:38;23.90;23.20
11399;DHT22;5755;48.116;11.608;2023-05-07T12:14:08;23.90;21.60
11399;DHT22;5755;48.116;11.608;2023-05-07T12:16:35;23.70;23.40
11399;DHT22;5755;48.116;11.608;2023-05-07T12:19:03;23.90;22.30
11399;DHT22;5755;48.116;11.608;2023-05-07T12:21:32;24.00;22.10
11399;DHT22;5755;48.116;11.608;2023-05-07T12:24:00;24.10;24.20
11399;DHT22;5755;48.116;11.608;2023-05-07T12:26:28;24.10;21.30
11399;DHT22;5755;48.116;11.608;2023-05-07T12:28:55;24.10;21.70
11399;DHT22;5755;48.116;11.608;2023-05-07T12:31:27;23.90;22.00
11399;DHT22;5755;48.116;11.608;2023-05-07T12:33:54;24.00;23.60
11399;DHT22;5755;48.116;11.608;2023-05-07T12:36:20;24.30;21.00
11399;DHT22;5755;48.116;11.608;2023-05-07T12:38:49;24.30;20.80
11399;DHT22;5755;48.116;11.608;2023-05-07T12:41:16;24.20;21.60
11399;DHT22;5755;48.116;11.608;2023-05-07T12:43:45;24.30;20.90
11399;DHT22;5755;48.116;11.608;2023-05-07T12:46:12;24.20;20.80
11399;DHT22;5755;48.116;11.608;2023-05-07T12:48:50;24.30;20.30
11399;DHT22;5755;48.116;11.608;2023-05-07T12:51:58;24.30;20.00
11399;DHT22;5755;48.116;11.608;2023-05-07T12:54:46;24.00;20.30
11399;DHT22;5755;48.116;11.608;2023-05-07T12:57:14;23.90;19.70
11399;DHT22;5755;48.116;11.608;2023-05-07T12:59:46;23.50;19.80
11399;DHT22;5755;48.116;11.608;2023-05-07T13:02:13;23.20;21.70
11399;DHT22;5755;48.116;11.608;2023-05-07T13:04:42;23.30;21.20
11399;DHT22;5755;48.116;11.608;2023-05-07T13:07:11;23.60;19.90
11399;DHT22;5755;48.116;11.608;2023-05-07T13:09:52;23.60;20.60
11399;DHT22;5755;48.116;11.608;2023-05-07T13:12:19;23.70;19.50
11399;DHT22;5755;48.116;11.608;2023-05-07T13:14:59;23.60;20.50
11399;DHT22;5755;48.116;11.608;2023-05-07T13:17:28;23.70;19.90
11399;DHT22;5755;48.116;11.608;2023-05-07T13:20:09;23.80;18.80
11399;DHT22;5755;48.116;11.608;2023-05-07T13:22:54;23.70;18.90
11399;DHT22;5755;48.116;11.608;2023-05-07T13:25:35;23.70;18.00
11399;DHT22;5755;48.116;11.608;2023-05-07T13:28:16;23.60;18.60
11399;DHT22;5755;48.116;11.608;2023-05-07T13:30:57;23.80;17.90
11399;DHT22;5755;48.116;11.608;2023-05-07T13:33:25;23.90;18.50
11399;DHT22;5755;48.116;11.608;2023-05-07T13:35:52;23.90;17.90
11399;DHT22;5755;48.116;11.608;2023-05-07T13:38:20;24.10;16.90
11399;DHT22;5755;48.116;11.608;2023-05-07T13:41:04;24.10;17.30
11399;DHT22;5755;48.116;11.608;2023-05-07T13:43:31;23.90;16.50
11399;DHT22;5755;48.116;11.608;2023-05-07T13:45:59;23.70;17.30
11399;DHT22;5755;48.116;11.608;2023-05-07T13:48:26;23.70;17.90
11399;DHT22;5755;48.116;11.608;2023-05-07T13:51:14;23.70;17.60
11399;DHT22;5755;48.116;11.608;2023-05-07T13:53:42;23.80;17.30
11399;DHT22;5755;48.116;11.608;2023-05-07T13:56:10;23.70;17.70
11399;DHT22;5755;48.116;11.608;2023-05-07T13:58:47;23.80;17.40
11399;DHT22;5755;48.116;11.608;2023-05-07T14:01:28;23.90;16.60
11399;DHT22;5755;48.116;11.608;2023-05-07T14:04:09;23.70;17.50
11399;DHT22;5755;48.116;11.608;2023-05-07T14:06:57;23.80;17.50
11399;DHT22;5755;48.116;11.608;2023-05-07T14:09:28;23.90;17.50
11399;DHT22;5755;48.116;11.608;2023-05-07T14:12:08;24.10;16.90
11399;DHT22;5755;48.116;11.608;2023-05-07T14:14:36;24.10;17.70
11399;DHT22;5755;48.116;11.608;2023-05-07T14:17:04;24.20;16.70
11399;DHT22;5755;48.116;11.608;2023-05-07T14:19:31;24.10;16.80
11399;DHT22;5755;48.116;11.608;2023-05-07T14:21:57;23.90;17.30
11399;DHT22;5755;48.116;11.608;2023-05-07T14:24:26;23.70;18.00
11399;DHT22;5755;48.116;11.608;2023-05-07T14:27:07;23.40;18.50
11399;DHT22;5755;48.116;11.608;2023-05-07T14:29:34;23.30;19.00
11399;DHT22;5755;48.116;11.608;2023-05-07T14:32:14;23.10;19.40
11399;DHT22;5755;48.116;11.608;2023-05-07T14:34:45;22.90;20.00
11399;DHT22;5755;48.116;11.608;2023-05-07T14:37:26;22.80;20.00
11399;DHT22;5755;48.116;11.608;2023-05-07T14:40:43;22.80;20.10
11399;DHT22;5755;48.116;11.608;2023-05-07T14:43:24;22.70;20.70
11399;DHT22;5755;48.116;11.608;2023-05-07T14:46:17;22.60;21.00
11399;DHT22;5755;48.116;11.608;2023-05-07T14:49:16;22.70;21.20
11399;DHT22;5755;48.116;11.608;2023-05-07T14:51:44;22.70;21.90
11399;DHT22;5755;48.116;11.608;2023-05-07T15:15:12;22.20;22.90
11399;DHT22;5755;48.116;11.608;2023-05-07T15:22:50;22.10;24.50
11399;DHT22;5755;48.116;11.608;2023-05-07T15:25:38;22.00;25.20
11399;DHT22;5755;48.116;11.608;2023-05-07T15:33:09;22.10;23.70
11399;DHT22;5755;48.116;11.608;2023-05-07T15:35:37;22.00;24.30
11399;DHT22;5755;48.116;11.608;2023-05-07T15:38:04;21.80;25.30
11399;DHT22;5755;48.116;11.608;2023-05-07T15:40:36;21.70;25.30
11399;DHT22;5755;48.116;11.608;2023-05-07T15:43:09;21.70;24.30
11399;DHT22;5755;48.116;11.608;2023-05-07T15:45:53;21.60;24.60
11399;DHT22;5755;48.116;11.608;2023-05-07T15:48:22;21.50;26.20
11399;DHT22;5755;48.116;11.608;2023-05-07T15:50:49;21.50;25.50
11399;DHT22;5755;48.116;11.608;2023-05-07T15:53:17;21.40;26.40
11399;DHT22;5755;48.116;11.608;2023-05-07T15:55:44;21.40;25.20
11399;DHT22;5755;48.116;11.608;2023-05-07T15:58:12;21.40;25.80
11399;DHT22;5755;48.116;11.608;2023-05-07T16:00:39;21.30;25.40
11399;DHT22;5755;48.116;11.608;2023-05-07T16:03:07;21.20;25.70
11399;DHT22;5755;48.116;11.608;2023-05-07T16:05:35;21.10;25.80
11399;DHT22;5755;48.116;11.608;2023-05-07T16:08:03;21.10;25.40
11399;DHT22;5755;48.116;11.608;2023-05-07T16:10:30;21.10;27.60
11399;DHT22;5755;48.116;11.608;2023-05-07T16:12:57;21.10;26.00
11399;DHT22;5755;48.116;11.608;2023-05-07T16:15:24;21.00;26.10
11399;DHT22;5755;48.116;11.608;2023-05-07T16:17:52;20.90;26.20
11399;DHT22;5755;48.116;11.608;2023-05-07T16:20:23;21.00;25.10
11399;DHT22;5755;48.116;11.608;2023-05-07T16:22:52;20.90;25.40
11399;DHT22;5755;48.116;11.608;2023-05-07T16:25:23;20.90;25.70
11399;DHT22;5755;48.116;11.608;2023-05-07T16:27:51;20.90;26.00
11399;DHT22;5755;48.116;11.608;2023-05-07T16:30:18;20.90;25.80
11399;DHT22;5755;48.116;11.608;2023-05-07T16:32:45;20.70;25.80